createdAt,value
2018-04-14T00:00:02.514Z,9.30
2018-04-14T00:02:31.688Z,9.23
2018-04-14T00:05:00.790Z,8.23
2018-04-14T00:07:30.716Z,9.97
2018-04-14T00:10:00.589Z,10.50
2018-04-14T00:12:29.870Z,11.13
2018-04-14T00:14:58.976Z,12.17
2018-04-14T00:17:28.050Z,10.03
2018-04-14T00:19:57.156Z,11.97
2018-04-14T00:22:26.236Z,13.13
2018-04-14T00:24:55.372Z,11.70
2018-04-14T00:27:24.453Z,10.70
2018-04-14T00:29:53.532Z,15.00
2018-04-14T00:32:23.441Z,11.63
2018-04-14T00:34:52.515Z,11.83
2018-04-14T00:37:21.600Z,12.30
2018-04-14T00:39:50.705Z,11.30
2018-04-14T00:42:19.820Z,14.33
2018-04-14T00:44:48.935Z,24.17
2018-04-14T00:47:18.090Z,14.17
2018-04-14T00:49:47.170Z,15.43
2018-04-14T00:52:16.254Z,17.50
2018-04-14T00:54:45.439Z,18.83
2018-04-14T00:57:15.325Z,16.83
2018-04-14T00:59:44.443Z,13.60
2018-04-14T01:02:13.565Z,11.97
2018-04-14T01:04:42.794Z,13.67
2018-04-14T01:07:11.881Z,14.80
2018-04-14T01:09:40.959Z,15.27
2018-04-14T01:12:10.066Z,19.23
2018-04-14T01:14:39.195Z,17.63
2018-04-14T01:17:08.531Z,21.57
2018-04-14T01:19:37.644Z,18.47
2018-04-14T01:22:06.753Z,16.57
2018-04-14T01:24:36.228Z,19.20
2018-04-14T01:27:05.344Z,18.87
2018-04-14T01:29:34.460Z,19.60
2018-04-14T01:32:03.638Z,24.70
2018-04-14T01:34:32.771Z,17.97
2018-04-14T01:37:01.850Z,21.00
2018-04-14T01:39:30.966Z,17.30
2018-04-14T01:42:00.815Z,20.80
2018-04-14T01:44:29.928Z,21.63
2018-04-14T01:46:59.051Z,22.50
2018-04-14T01:49:28.131Z,17.40
2018-04-14T01:51:58.836Z,26.67
2018-04-14T01:54:27.944Z,23.17
2018-04-14T01:56:57.069Z,23.37
2018-04-14T01:59:26.153Z,23.87
2018-04-14T02:01:55.242Z,20.40
2018-04-14T02:04:24.356Z,21.67
2018-04-14T02:06:53.435Z,21.83
2018-04-14T02:09:23.308Z,27.37
2018-04-14T02:11:52.431Z,23.50
2018-04-14T02:14:21.520Z,22.60
2018-04-14T02:19:50.261Z,22.93
2018-04-14T02:22:19.386Z,33.50
2018-04-14T02:24:48.570Z,25.23
2018-04-14T02:27:17.749Z,27.60
2018-04-14T02:29:46.839Z,26.97
2018-04-14T02:32:15.927Z,22.03
2018-04-14T02:34:45.071Z,26.43
2018-04-14T02:37:14.158Z,23.05
2018-04-14T02:39:43.308Z,23.97
2018-04-14T02:42:12.411Z,25.20
2018-04-14T02:44:41.521Z,28.47
2018-04-14T02:47:10.636Z,27.50
2018-04-14T02:49:39.808Z,30.93
2018-04-14T02:52:08.986Z,29.00
2018-04-14T02:54:38.858Z,29.90
2018-04-14T02:57:08.024Z,31.23
2018-04-14T02:59:37.134Z,30.83
2018-04-14T03:02:06.240Z,30.80
2018-04-14T03:04:35.367Z,36.00
2018-04-14T03:07:04.481Z,30.70
2018-04-14T03:09:33.563Z,36.23
2018-04-14T03:12:03.410Z,34.00
2018-04-14T03:14:32.487Z,33.53
2018-04-14T03:17:01.695Z,33.10
2018-04-14T03:19:31.561Z,39.20
2018-04-14T03:22:00.639Z,37.30
2018-04-14T03:24:30.520Z,36.57
2018-04-14T03:26:59.676Z,35.50
2018-04-14T03:29:28.839Z,34.70
2018-04-14T03:31:58.455Z,38.27
2018-04-14T03:34:27.565Z,40.10
2018-04-14T03:36:56.742Z,44.73
2018-04-14T03:39:26.591Z,39.80
2018-04-14T03:41:55.712Z,40.90
2018-04-14T03:44:24.790Z,40.20
2018-04-14T03:46:54.699Z,41.10
2018-04-14T03:49:23.813Z,39.77
2018-04-14T03:51:52.898Z,37.10
2018-04-14T03:54:22.015Z,32.97
2018-04-14T03:56:51.896Z,34.90
2018-04-14T03:59:21.011Z,28.87
2018-04-14T04:01:50.131Z,31.40
2018-04-14T04:04:19.215Z,32.07
2018-04-14T04:06:49.063Z,39.30
2018-04-14T04:09:18.136Z,36.57
2018-04-14T04:11:47.248Z,39.70
2018-04-14T04:14:16.365Z,46.90
2018-04-14T04:16:46.324Z,45.23
2018-04-14T04:22:46.054Z,46.75
2018-04-14T04:28:23.902Z,32.45
2018-04-14T04:30:53.792Z,27.90
2018-04-14T04:33:22.886Z,30.90
2018-04-14T04:35:52.003Z,33.75
2018-04-14T04:38:21.893Z,33.77
2018-04-14T04:40:51.896Z,31.90
2018-04-14T04:43:21.807Z,34.78
2018-04-14T04:45:50.929Z,43.87
2018-04-14T04:48:20.023Z,49.50
2018-04-14T04:50:49.135Z,49.40
2018-04-14T04:53:18.224Z,58.05
2018-04-14T04:55:47.360Z,57.63
2018-04-14T04:58:17.331Z,69.53
2018-04-14T05:00:47.302Z,71.62
2018-04-14T05:03:17.181Z,76.77
2018-04-14T05:05:46.289Z,74.28
2018-04-14T05:08:16.165Z,84.70
2018-04-14T05:10:45.604Z,91.63
2018-04-14T05:13:14.728Z,83.63
2018-04-14T05:15:43.848Z,82.43
2018-04-14T05:18:12.975Z,83.93
2018-04-14T05:20:42.059Z,84.00
2018-04-14T05:23:11.947Z,81.23
2018-04-14T05:25:41.057Z,91.20
2018-04-14T05:28:10.191Z,87.57
2018-04-14T05:30:39.273Z,83.23
2018-04-14T05:33:09.183Z,89.17
2018-04-14T05:35:38.312Z,97.33
2018-04-14T05:38:07.407Z,81.77
2018-04-14T05:40:37.360Z,86.22
2018-04-14T05:43:06.443Z,76.12
2018-04-14T05:45:35.587Z,77.80
2018-04-14T05:48:04.665Z,84.72
2018-04-14T05:50:33.742Z,73.60
2018-04-14T05:53:02.814Z,73.00
2018-04-14T05:55:31.923Z,74.47
2018-04-14T05:58:01.053Z,72.07
2018-04-14T06:00:30.134Z,66.57
2018-04-14T06:02:59.975Z,68.50
2018-04-14T06:05:29.059Z,67.10
2018-04-14T06:07:59.013Z,63.23
2018-04-14T06:10:28.143Z,72.67
2018-04-14T06:12:57.236Z,64.73
2018-04-14T06:15:26.356Z,64.13
2018-04-14T06:17:55.465Z,64.73
2018-04-14T06:20:24.547Z,67.00
2018-04-14T06:22:54.485Z,72.37
2018-04-14T06:25:24.517Z,71.50
2018-04-14T06:27:53.664Z,68.23
2018-04-14T06:30:22.759Z,72.27
2018-04-14T06:32:51.836Z,72.90
2018-04-14T06:35:21.768Z,55.57
2018-04-14T06:37:51.652Z,62.77
2018-04-14T06:40:21.121Z,64.43
2018-04-14T06:42:50.967Z,65.27
2018-04-14T06:45:20.070Z,69.93
2018-04-14T06:47:49.192Z,73.00
2018-04-14T06:50:18.309Z,75.33
2018-04-14T06:52:47.396Z,76.80
2018-04-14T06:55:17.268Z,77.47
2018-04-14T06:57:46.390Z,78.83
2018-04-14T07:00:15.609Z,72.60
2018-04-14T07:02:44.720Z,82.27
2018-04-14T07:05:13.892Z,76.80
2018-04-14T07:07:43.003Z,79.27
2018-04-14T07:10:12.156Z,83.63
2018-04-14T07:12:41.268Z,94.37
2018-04-14T07:15:10.473Z,87.60
2018-04-14T07:17:39.629Z,95.23
2018-04-14T07:20:08.758Z,93.17
2018-04-14T07:22:37.897Z,104.10
2018-04-14T07:25:07.030Z,94.10
2018-04-14T07:27:36.112Z,93.33
2018-04-14T07:30:05.236Z,94.50
2018-04-14T07:32:34.379Z,100.03
2018-04-14T07:35:04.236Z,101.90
2018-04-14T07:37:33.377Z,115.70
2018-04-14T07:40:02.502Z,105.87
2018-04-14T07:42:31.632Z,111.23
2018-04-14T07:45:01.569Z,109.70
2018-04-14T07:47:31.504Z,111.00
2018-04-14T07:50:01.364Z,123.33
2018-04-14T07:52:30.478Z,119.77
2018-04-14T07:54:59.575Z,114.10
2018-04-14T07:57:28.673Z,114.93
2018-04-14T07:59:57.802Z,119.40
2018-04-14T08:02:26.923Z,114.03
2018-04-14T08:05:00.446Z,104.50
2018-04-14T08:07:29.616Z,113.20
2018-04-14T08:09:58.767Z,105.50
2018-04-14T08:12:27.910Z,114.53
2018-04-14T08:14:57.023Z,103.00
2018-04-14T08:17:26.160Z,110.33
2018-04-14T08:19:55.280Z,114.97
2018-04-14T08:22:24.440Z,106.13
2018-04-14T08:24:53.560Z,115.70
2018-04-14T08:27:22.680Z,108.50
2018-04-14T08:29:52.538Z,104.03
2018-04-14T08:32:21.721Z,103.17
2018-04-14T08:34:51.604Z,98.80
2018-04-14T08:37:20.719Z,98.03
2018-04-14T08:39:49.825Z,97.90
2018-04-14T08:42:18.942Z,90.83
2018-04-14T08:44:48.047Z,87.37
2018-04-14T08:47:17.173Z,79.90
2018-04-14T08:49:46.282Z,93.20
2018-04-14T08:52:15.371Z,82.43
2018-04-14T08:54:44.511Z,80.73
2018-04-14T08:57:13.598Z,79.20
2018-04-14T08:59:42.790Z,89.90
2018-04-14T09:02:11.867Z,82.23
2018-04-14T09:04:41.710Z,81.93
2018-04-14T09:07:11.584Z,80.50
2018-04-14T09:09:40.797Z,80.27
2018-04-14T09:12:09.926Z,80.10
2018-04-14T09:14:39.003Z,75.23
2018-04-14T09:17:08.135Z,68.87
2018-04-14T09:19:37.236Z,62.53
2018-04-14T09:22:06.377Z,69.83
2018-04-14T09:24:35.616Z,62.87
2018-04-14T09:27:05.533Z,63.33
2018-04-14T09:29:35.408Z,64.10
2018-04-14T09:32:04.494Z,55.80
2018-04-14T09:34:33.628Z,58.30
2018-04-14T09:37:02.724Z,65.17
2018-04-14T09:39:31.889Z,58.50
2018-04-14T09:42:00.991Z,55.03
2018-04-14T09:44:30.082Z,51.83
2018-04-14T09:46:59.203Z,59.00
2018-04-14T09:49:29.210Z,57.13
2018-04-14T09:51:58.368Z,47.17
2018-04-14T09:54:27.457Z,89.93
2018-04-14T09:56:56.648Z,51.30
2018-04-14T09:59:25.752Z,53.63
2018-04-14T10:01:54.822Z,50.07
2018-04-14T10:04:23.925Z,50.67
2018-04-14T10:06:53.004Z,47.10
2018-04-14T10:09:22.906Z,46.40
2018-04-14T10:11:52.093Z,48.20
2018-04-14T10:14:21.974Z,43.50
2018-04-14T10:16:51.861Z,50.60
2018-04-14T10:19:21.715Z,46.00
2018-04-14T10:21:50.783Z,37.60
2018-04-14T10:24:19.855Z,38.30
2018-04-14T10:26:48.964Z,40.17
2018-04-14T10:29:18.079Z,43.60
2018-04-14T10:31:47.162Z,43.93
2018-04-14T10:34:16.234Z,40.97
2018-04-14T10:36:46.074Z,42.93
2018-04-14T10:39:16.280Z,42.77
2018-04-14T10:41:45.375Z,40.77
2018-04-14T10:44:14.458Z,41.10
2018-04-14T10:46:43.591Z,38.57
2018-04-14T10:49:14.216Z,39.80
2018-04-14T10:51:43.347Z,38.70
2018-04-14T10:54:12.452Z,38.70
2018-04-14T10:56:41.534Z,37.70
2018-04-14T10:59:10.612Z,39.90
2018-04-14T11:01:39.687Z,38.70
2018-04-14T11:04:08.836Z,35.80
2018-04-14T11:06:38.713Z,37.10
2018-04-14T11:09:07.857Z,36.17
2018-04-14T11:11:36.971Z,36.73
2018-04-14T11:14:06.079Z,42.43
2018-04-14T11:16:35.266Z,34.40
2018-04-14T11:19:04.347Z,39.50
2018-04-14T11:21:33.465Z,39.60
2018-04-14T11:24:02.548Z,40.40
2018-04-14T11:26:32.390Z,37.17
2018-04-14T11:29:01.463Z,38.87
2018-04-14T11:31:30.608Z,38.43
2018-04-14T11:33:59.711Z,32.70
2018-04-14T11:36:29.589Z,36.70
2018-04-14T11:38:58.695Z,35.20
2018-04-14T11:41:27.862Z,37.80
2018-04-14T11:43:57.778Z,36.40
2018-04-14T11:46:27.639Z,35.80
2018-04-14T11:48:56.746Z,38.00
2018-04-14T11:51:25.828Z,34.23
2018-04-14T11:53:55.700Z,36.10
2018-04-14T11:56:24.800Z,35.37
2018-04-14T11:58:53.872Z,36.70
2018-04-14T12:01:23.011Z,35.33
2018-04-14T12:03:52.120Z,31.40
2018-04-14T12:06:21.271Z,35.80
2018-04-14T12:08:50.356Z,32.53
2018-04-14T12:11:19.488Z,27.80
2018-04-14T12:13:48.598Z,32.27
2018-04-14T12:16:17.723Z,27.47
2018-04-14T12:18:46.796Z,26.23
2018-04-14T12:21:15.874Z,28.80
2018-04-14T12:23:45.775Z,33.87
2018-04-14T12:26:14.921Z,33.33
2018-04-14T12:28:44.836Z,34.63
2018-04-14T12:31:14.683Z,35.90
2018-04-14T12:33:43.758Z,36.07
2018-04-14T12:36:12.832Z,37.47
2018-04-14T12:38:41.998Z,40.23
2018-04-14T12:41:11.841Z,45.40
2018-04-14T12:43:41.717Z,49.43
2018-04-14T12:46:10.874Z,53.80
2018-04-14T12:48:40.754Z,58.43
2018-04-14T12:51:09.836Z,62.50
2018-04-14T12:53:38.916Z,58.77
2018-04-14T12:56:09.121Z,58.37
2018-04-14T12:58:38.212Z,44.43
2018-04-14T13:01:07.295Z,42.87
2018-04-14T13:03:36.372Z,46.23
2018-04-14T13:06:06.281Z,54.83
2018-04-14T13:08:35.428Z,51.37
2018-04-14T13:11:04.511Z,48.03
2018-04-14T13:13:33.593Z,50.60
2018-04-14T13:16:02.713Z,54.23
2018-04-14T13:18:31.828Z,46.63
2018-04-14T13:21:00.985Z,49.63
2018-04-14T13:23:30.111Z,49.40
2018-04-14T13:25:59.229Z,58.30
2018-04-14T13:28:28.302Z,53.40
2018-04-14T13:30:58.215Z,52.70
2018-04-14T13:33:27.328Z,42.00
2018-04-14T13:35:56.436Z,50.60
2018-04-14T13:38:25.553Z,54.50
2018-04-14T13:40:54.668Z,49.40
2018-04-14T13:43:24.552Z,50.00
2018-04-14T13:45:53.660Z,50.37
2018-04-14T13:48:23.205Z,42.20
2018-04-14T13:50:52.319Z,46.20
2018-04-14T13:53:21.473Z,49.33
2018-04-14T13:55:50.591Z,43.33
2018-04-14T13:58:19.810Z,46.10
2018-04-14T14:00:48.920Z,41.70
2018-04-14T14:03:18.011Z,42.27
2018-04-14T14:05:47.884Z,40.57
2018-04-14T14:08:16.988Z,40.20
2018-04-14T14:10:46.904Z,33.97
2018-04-14T14:13:16.018Z,43.63
2018-04-14T14:15:45.095Z,43.63
2018-04-14T14:18:15.038Z,42.07
2018-04-14T14:20:44.154Z,35.00
2018-04-14T14:23:13.231Z,35.30
2018-04-14T14:25:42.307Z,37.77
2018-04-14T14:28:11.390Z,33.97
2018-04-14T14:30:40.463Z,40.23
2018-04-14T14:33:09.533Z,38.40
2018-04-14T14:35:38.603Z,37.00
2018-04-14T14:38:07.770Z,36.40
2018-04-14T14:40:36.846Z,37.70
2018-04-14T14:43:05.981Z,43.93
2018-04-14T14:45:35.096Z,38.03
2018-04-14T14:48:04.326Z,36.30
2018-04-14T14:50:33.434Z,39.20
2018-04-14T14:53:02.592Z,41.23
2018-04-14T14:55:31.704Z,42.43
2018-04-14T14:58:00.824Z,42.67
2018-04-14T15:00:29.934Z,40.23
2018-04-14T15:02:59.049Z,36.03
2018-04-14T15:05:28.132Z,33.47
2018-04-14T15:07:57.969Z,38.43
2018-04-14T15:10:27.067Z,36.80
2018-04-14T15:12:56.936Z,32.27
2018-04-14T15:15:26.812Z,32.73
2018-04-14T15:17:56.684Z,29.40
2018-04-14T15:20:25.826Z,29.33
2018-04-14T15:22:54.963Z,24.57
2018-04-14T15:25:24.849Z,25.13
2018-04-14T15:27:54.045Z,24.43
2018-04-14T15:30:23.193Z,31.20
2018-04-14T15:32:52.272Z,35.83
2018-04-14T15:35:21.349Z,46.20
2018-04-14T15:37:50.423Z,47.40
2018-04-14T15:40:19.549Z,47.03
2018-04-14T15:42:48.642Z,56.77
2018-04-14T15:45:17.723Z,46.90
2018-04-14T15:47:46.802Z,60.43
2018-04-14T15:50:15.908Z,49.57
2018-04-14T15:52:44.979Z,48.00
2018-04-14T15:55:14.092Z,52.20
2018-04-14T15:57:43.201Z,51.47
2018-04-14T16:00:12.319Z,47.13
2018-04-14T16:02:41.420Z,51.40
2018-04-14T16:05:10.499Z,51.90
2018-04-14T16:07:39.603Z,48.07
2018-04-14T16:10:08.716Z,52.53
2018-04-14T16:12:37.835Z,51.10
2018-04-14T16:15:06.940Z,49.40
2018-04-14T16:17:36.045Z,47.47
2018-04-14T16:20:05.163Z,45.47
2018-04-14T16:22:34.234Z,43.10
2018-04-14T16:25:04.118Z,45.53
2018-04-14T16:27:33.232Z,45.33
2018-04-14T16:30:02.331Z,53.10
2018-04-14T16:32:31.407Z,46.17
2018-04-14T16:35:00.480Z,42.47
2018-04-14T16:37:29.550Z,43.63
2018-04-14T16:39:59.420Z,41.83
2018-04-14T16:42:28.560Z,44.43
2018-04-14T16:44:57.668Z,45.60
2018-04-14T16:47:26.746Z,51.63
2018-04-14T16:49:55.855Z,47.10
2018-04-14T16:52:24.992Z,45.50
2018-04-14T16:54:54.909Z,42.93
2018-04-14T16:57:24.751Z,42.53
2018-04-14T16:59:54.607Z,36.83
2018-04-14T17:02:23.782Z,42.83
2018-04-14T17:04:53.754Z,78.20
2018-04-14T17:07:22.831Z,58.37
2018-04-14T17:09:52.704Z,47.10
2018-04-14T17:12:21.844Z,51.90
2018-04-14T17:14:50.997Z,50.90
2018-04-14T17:17:20.078Z,59.27
2018-04-14T17:19:49.189Z,58.70
2018-04-14T17:22:18.270Z,58.10
2018-04-14T17:24:47.351Z,50.30
2018-04-14T17:27:16.471Z,58.07
2018-04-14T17:29:45.560Z,57.00
2018-04-14T17:32:14.664Z,53.83
2018-04-14T17:34:43.772Z,47.20
2018-04-14T17:37:13.068Z,46.77
2018-04-14T17:39:42.981Z,58.37
2018-04-14T17:42:12.056Z,53.27
2018-04-14T17:44:41.301Z,60.67
2018-04-14T17:47:10.468Z,62.27
2018-04-14T17:49:39.550Z,53.40
2018-04-14T17:52:09.480Z,50.97
2018-04-14T17:54:39.358Z,58.77
2018-04-14T17:57:08.504Z,57.07
2018-04-14T17:59:38.354Z,59.17
2018-04-14T18:02:07.434Z,55.23
2018-04-14T18:04:36.586Z,58.43
2018-04-14T18:07:05.663Z,63.97
2018-04-14T18:09:35.705Z,60.00
2018-04-14T18:12:05.588Z,72.07
2018-04-14T18:14:34.733Z,57.13
2018-04-14T18:17:04.693Z,61.77
2018-04-14T18:19:33.817Z,61.87
2018-04-14T18:22:02.939Z,71.23
2018-04-14T18:24:32.112Z,60.47
2018-04-14T18:27:03.111Z,64.93
2018-04-14T18:29:32.192Z,62.90
2018-04-14T18:32:01.301Z,81.97
2018-04-14T18:34:30.434Z,80.00
2018-04-14T18:36:59.553Z,74.07
2018-04-14T18:39:28.658Z,91.20
2018-04-14T18:41:58.526Z,76.60
2018-04-14T18:44:27.672Z,77.37
2018-04-14T18:46:56.777Z,73.53
2018-04-14T18:49:25.865Z,86.37
2018-04-14T18:51:54.971Z,87.50
2018-04-14T18:54:24.133Z,75.23
2018-04-14T18:56:54.143Z,80.13
2018-04-14T18:59:23.262Z,72.77
2018-04-14T19:01:52.348Z,78.23
2018-04-14T19:04:22.221Z,104.93
2018-04-14T19:06:51.373Z,114.60
2018-04-14T19:09:21.223Z,113.60
2018-04-14T19:11:50.364Z,106.73
2018-04-14T19:14:19.455Z,121.20
2018-04-14T19:16:48.580Z,119.57
2018-04-14T19:19:17.699Z,145.63
2018-04-14T19:21:46.928Z,152.50
2018-04-14T19:24:16.805Z,148.13
2018-04-14T19:26:46.099Z,135.97
2018-04-14T19:29:15.185Z,136.03
2018-04-14T19:31:44.296Z,131.07
2018-04-14T19:34:13.402Z,127.50
2018-04-14T19:36:42.518Z,147.90
2018-04-14T19:39:11.682Z,133.67
2018-04-14T19:41:40.763Z,135.23
2018-04-14T19:44:09.871Z,161.63
2018-04-14T19:46:39.016Z,174.20
2018-04-14T19:49:08.227Z,208.57
2018-04-14T19:51:37.355Z,172.20
2018-04-14T19:54:06.705Z,161.70
2018-04-14T19:56:35.822Z,157.20
2018-04-14T19:59:04.906Z,174.27
2018-04-14T20:01:34.063Z,153.30
2018-04-14T20:04:03.951Z,150.70
2018-04-14T20:06:33.070Z,145.37
2018-04-14T20:09:02.161Z,129.67
2018-04-14T20:11:31.442Z,142.63
2018-04-14T20:14:00.561Z,144.73
2018-04-14T20:16:29.677Z,139.43
2018-04-14T20:18:58.861Z,144.63
2018-04-14T20:21:27.972Z,150.20
2018-04-14T20:23:57.852Z,127.43
2018-04-14T20:26:26.970Z,139.13
2018-04-14T20:28:56.167Z,149.97
2018-04-14T20:31:25.260Z,140.27
2018-04-14T20:33:54.376Z,141.23
2018-04-14T20:36:23.549Z,135.97
2018-04-14T20:38:53.430Z,147.83
2018-04-14T20:41:22.556Z,167.93
2018-04-14T20:43:51.657Z,178.23
2018-04-14T20:46:20.785Z,153.43
2018-04-14T20:48:49.944Z,143.93
2018-04-14T20:51:19.791Z,138.57
2018-04-14T20:53:48.877Z,134.43
2018-04-14T20:56:18.761Z,143.67
2018-04-14T20:58:47.940Z,141.10
2018-04-14T21:01:17.028Z,140.27
2018-04-14T21:03:46.945Z,129.37
2018-04-14T21:06:16.853Z,144.13
2018-04-14T21:08:45.972Z,138.70
2018-04-14T21:11:15.092Z,140.03
2018-04-14T21:13:45.171Z,140.97
2018-04-14T21:16:14.293Z,136.23
2018-04-14T21:18:43.440Z,137.30
2018-04-14T21:21:12.558Z,145.77
2018-04-14T21:23:42.497Z,134.27
2018-04-14T21:26:12.380Z,143.47
2018-04-14T21:28:41.569Z,144.93
2018-04-14T21:31:10.723Z,144.00
2018-04-14T21:33:39.850Z,156.17
2018-04-14T21:36:09.732Z,156.33
2018-04-14T21:38:38.888Z,161.00
2018-04-14T21:41:08.749Z,173.80
2018-04-14T21:43:37.835Z,146.30
2018-04-14T21:46:07.695Z,148.20
2018-04-14T21:48:36.776Z,147.63
2018-04-14T21:51:06.623Z,137.97
2018-04-14T21:53:35.842Z,140.13
2018-04-14T21:56:04.974Z,138.88
2018-04-14T21:58:34.135Z,130.53
2018-04-14T22:01:04.042Z,139.40
2018-04-14T22:03:33.160Z,138.93
2018-04-14T22:06:02.291Z,133.33
2018-04-14T22:08:32.172Z,141.53
2018-04-14T22:11:02.061Z,137.87
2018-04-14T22:13:31.364Z,154.30
2018-04-14T22:16:01.250Z,141.20
2018-04-14T22:18:30.346Z,148.75
2018-04-14T22:20:59.461Z,136.77
2018-04-14T22:23:28.559Z,142.75
2018-04-14T22:25:57.739Z,154.37
2018-04-14T22:28:26.868Z,146.98
2018-04-14T22:30:55.985Z,154.83
2018-04-14T22:33:25.075Z,147.07
2018-04-14T22:35:54.160Z,158.23
2018-04-14T22:38:24.196Z,159.37
2018-04-14T22:40:54.066Z,153.17
2018-04-14T22:43:23.189Z,156.87
2018-04-14T22:45:52.322Z,175.35
2018-04-14T22:48:21.460Z,155.77
2018-04-14T22:50:51.317Z,152.38
2018-04-14T22:53:20.406Z,146.70
2018-04-14T22:55:50.350Z,149.85
2018-04-14T22:58:19.443Z,150.32
2018-04-14T23:00:49.333Z,144.48
2018-04-14T23:03:18.432Z,149.23
2018-04-14T23:05:47.560Z,152.23
2018-04-14T23:08:16.683Z,155.00
2018-04-14T23:10:45.780Z,164.27
2018-04-14T23:13:14.907Z,155.77
2018-04-14T23:15:44.003Z,161.27
2018-04-14T23:18:13.086Z,161.77
2018-04-14T23:20:42.208Z,148.18
2018-04-14T23:23:11.296Z,155.87
2018-04-14T23:25:40.418Z,156.35
2018-04-14T23:28:09.520Z,153.50
2018-04-14T23:30:38.608Z,172.30
2018-04-14T23:33:07.812Z,153.48
2018-04-14T23:35:36.902Z,184.87
2018-04-14T23:38:06.794Z,198.93
2018-04-14T23:40:35.916Z,207.57
2018-04-14T23:43:05.075Z,214.43
2018-04-14T23:45:34.193Z,208.45
2018-04-14T23:48:03.284Z,190.95
2018-04-14T23:50:33.165Z,189.55
2018-04-14T23:53:02.294Z,206.35
2018-04-14T23:55:31.449Z,233.07
2018-04-14T23:58:00.627Z,210.35
